Time;durP1;ratioP1;P1;durP2;ratioP2;P2;SDS_P1;SDS_P2;PMS_P1;PMS_P2;Temp;Humidity;BMP_temperature;BMP_pressure;BME280_temperature;BME280_humidity;BME280_pressure;Samples;Min_cycle;Max_cycle;Signal;HPM_P1;HPM_P2
2022/03/10 00:00:06;;;;;;;23.35;14.88;;;5.30;98.80;;;;;;4996339;28;20536;-67
2022/03/10 00:02:32;;;;;;;23.15;15.48;;;5.30;98.70;;;;;;4996533;28;20061;-67
2022/03/10 00:04:57;;;;;;;21.63;15.98;;;5.20;98.90;;;;;;4997291;28;20050;-69
2022/03/10 00:07:23;;;;;;;24.25;15.65;;;5.20;99.30;;;;;;4996960;28;20078;-67
2022/03/10 00:09:49;;;;;;;24.48;14.95;;;5.20;99.50;;;;;;4997211;28;20031;-69
2022/03/10 00:12:14;;;;;;;21.08;15.15;;;5.20;99.10;;;;;;4997077;28;20045;-69
2022/03/10 00:14:40;;;;;;;21.38;14.40;;;5.20;99.10;;;;;;4997291;28;20050;-69
2022/03/10 00:17:05;;;;;;;21.73;15.73;;;5.10;99.20;;;;;;4996560;28;20046;-67
2022/03/10 00:19:31;;;;;;;22.88;15.23;;;5.10;99.40;;;;;;4996654;28;20053;-67
2022/03/10 00:21:56;;;;;;;24.10;15.45;;;5.10;99.40;;;;;;4980175;28;20042;-67
2022/03/10 00:24:22;;;;;;;21.75;14.90;;;5.10;99.50;;;;;;4979851;28;20059;-67
2022/03/10 00:26:47;;;;;;;28.15;15.20;;;5.10;99.90;;;;;;5016127;28;20046;-67
2022/03/10 00:29:13;;;;;;;21.90;13.98;;;5.00;99.80;;;;;;4999028;28;20072;-68
2022/03/10 00:31:40;;;;;;;23.25;15.50;;;5.10;99.40;;;;;;5016016;28;20460;-68
2022/03/10 00:34:06;;;;;;;22.10;15.27;;;5.10;99.30;;;;;;5016427;28;20053;-67
2022/03/10 00:36:31;;;;;;;23.90;15.68;;;5.10;99.70;;;;;;5016511;28;20046;-68
2022/03/10 00:38:57;;;;;;;20.42;14.80;;;5.00;99.50;;;;;;4999348;28;20034;-67
2022/03/10 00:41:22;;;;;;;20.15;14.35;;;5.00;99.40;;;;;;4996560;28;20042;-69
2022/03/10 00:43:48;;;;;;;25.42;15.55;;;5.00;99.40;;;;;;4979580;28;20050;-67
2022/03/10 00:46:14;;;;;;;23.20;14.90;;;5.00;98.90;;;;;;4995685;28;20046;-68
2022/03/10 00:48:40;;;;;;;22.02;15.02;;;5.00;99.20;;;;;;4979482;28;20321;-67
2022/03/10 00:51:06;;;;;;;23.25;13.77;;;5.00;99.20;;;;;;4996553;28;20483;-67
2022/03/10 00:53:32;;;;;;;21.15;14.50;;;5.00;98.80;;;;;;4996059;28;20092;-68
2022/03/10 00:55:59;;;;;;;20.42;14.10;;;5.00;98.80;;;;;;4996166;28;20058;-68
2022/03/10 00:58:25;;;;;;;21.58;14.60;;;5.00;98.90;;;;;;4985215;28;20457;-67
2022/03/10 01:00:53;;;;;;;23.17;14.65;;;5.00;98.80;;;;;;4994987;28;20038;-67
2022/03/10 01:03:19;;;;;;;24.85;14.05;;;5.00;99.00;;;;;;4996294;28;20399;-68
2022/03/10 01:05:45;;;;;;;21.48;14.27;;;5.00;98.90;;;;;;4996490;28;20176;-67
2022/03/10 01:08:11;;;;;;;19.70;13.45;;;5.00;98.70;;;;;;4995361;28;20061;-68
2022/03/10 01:10:37;;;;;;;21.02;14.23;;;5.00;98.40;;;;;;4996233;28;20160;-68
2022/03/10 01:13:03;;;;;;;18.40;13.43;;;5.00;98.70;;;;;;4994416;28;20045;-68
2022/03/10 01:15:29;;;;;;;20.23;13.95;;;5.00;99.00;;;;;;4995751;28;20042;-68
2022/03/10 01:17:56;;;;;;;18.65;14.32;;;4.90;98.80;;;;;;4996027;28;20081;-66
2022/03/10 01:20:24;;;;;;;21.13;14.18;;;4.90;98.70;;;;;;4994589;28;20120;-68
2022/03/10 01:22:50;;;;;;;21.52;15.07;;;4.90;98.80;;;;;;4995628;28;20444;-68
2022/03/10 01:25:16;;;;;;;19.38;14.13;;;4.90;98.60;;;;;;4988452;28;20053;-68
2022/03/10 01:27:42;;;;;;;21.67;14.80;;;4.80;98.60;;;;;;4982865;28;20046;-68
2022/03/10 01:30:09;;;;;;;24.23;15.38;;;4.80;98.80;;;;;;4995843;28;20447;-68
2022/03/10 01:32:35;;;;;;;22.67;13.75;;;4.80;99.20;;;;;;4995873;28;20045;-68
2022/03/10 01:35:05;;;;;;;22.45;15.50;;;4.80;99.40;;;;;;4995315;28;20042;-68
2022/03/10 01:37:32;;;;;;;23.02;13.57;;;4.70;99.50;;;;;;4995701;28;20038;-68
2022/03/10 01:39:58;;;;;;;21.98;13.68;;;4.70;99.60;;;;;;4995044;28;20046;-67
2022/03/10 01:42:24;;;;;;;20.42;15.07;;;4.70;99.20;;;;;;4994968;28;20407;-67
2022/03/10 01:44:55;;;;;;;24.05;14.80;;;4.70;99.40;;;;;;4995549;28;20041;-67
2022/03/10 01:47:22;;;;;;;21.25;14.25;;;4.70;99.60;;;;;;4993938;28;20046;-67
2022/03/10 01:49:48;;;;;;;20.88;14.75;;;4.60;99.20;;;;;;4994949;28;20101;-67
2022/03/10 01:52:14;;;;;;;28.02;15.38;;;4.60;99.70;;;;;;4994652;28;20053;-67
2022/03/10 01:54:41;;;;;;;22.02;15.38;;;4.60;99.50;;;;;;4994085;28;20125;-67
2022/03/10 01:57:07;;;;;;;23.95;14.77;;;4.50;99.70;;;;;;4995577;28;20160;-67
2022/03/10 01:59:33;;;;;;;20.85;13.70;;;4.50;99.90;;;;;;4997800;28;20145;-68
2022/03/10 02:01:59;;;;;;;26.27;15.70;;;4.50;99.50;;;;;;4997822;28;20128;-67
2022/03/10 02:04:24;;;;;;;23.75;14.63;;;4.50;99.90;;;;;;5014933;28;20470;-67
2022/03/10 02:06:51;;;;;;;19.70;14.23;;;4.50;99.80;;;;;;5015021;28;20045;-68
2022/03/10 02:12:00;;;;;;;22.48;14.80;;;4.50;99.80;;;;;;4991437;28;20050;-68
2022/03/10 02:17:22;;;;;;;22.77;14.82;;;4.40;99.80;;;;;;4976091;28;20053;-67
2022/03/10 02:19:53;;;;;;;21.88;15.35;;;4.40;99.90;;;;;;4975537;28;20106;-68
2022/03/10 02:22:20;;;;;;;24.20;15.63;;;4.40;99.90;;;;;;4975668;28;20039;-68
2022/03/10 02:24:46;;;;;;;24.33;15.65;;;4.30;99.90;;;;;;4982888;28;20475;-67
2022/03/10 02:27:26;;;;;;;24.92;15.45;;;4.30;99.90;;;;;;4998908;28;20360;-67
2022/03/10 02:29:59;;;;;;;22.15;14.20;;;4.30;99.90;;;;;;4995223;28;20042;-67
2022/03/10 02:32:26;;;;;;;21.08;15.52;;;4.30;99.90;;;;;;4977967;28;20046;-68
2022/03/10 02:34:51;;;;;;;21.73;14.98;;;4.20;99.90;;;;;;4977938;28;20038;-68
2022/03/10 02:37:17;;;;;;;20.60;15.00;;;4.20;99.90;;;;;;4995234;28;20172;-68
2022/03/10 02:39:44;;;;;;;22.23;14.90;;;4.20;99.90;;;;;;4983042;28;20455;-67
2022/03/10 02:42:11;;;;;;;23.50;15.38;;;4.20;99.90;;;;;;4997468;28;20049;-67
2022/03/10 02:44:42;;;;;;;22.55;15.23;;;4.20;99.90;;;;;;5014359;28;20045;-67
2022/03/10 02:47:07;;;;;;;22.90;15.05;;;4.20;99.90;;;;;;4996977;28;20060;-67
2022/03/10 02:49:33;;;;;;;24.98;16.10;;;4.10;99.90;;;;;;5014381;28;20038;-67
2022/03/10 02:52:00;;;;;;;23.88;16.70;;;4.10;99.90;;;;;;5013899;28;20050;-68
2022/03/10 02:54:26;;;;;;;23.60;15.82;;;4.10;99.90;;;;;;4995637;28;20456;-68
2022/03/10 02:56:51;;;;;;;26.55;16.13;;;4.10;99.90;;;;;;4994728;28;20061;-67
2022/03/10 02:59:17;;;;;;;26.02;16.40;;;4.10;99.90;;;;;;5012897;28;20054;-66
2022/03/10 03:01:42;;;;;;;22.10;15.52;;;4.10;99.90;;;;;;5014387;28;20069;-67
2022/03/10 03:04:08;;;;;;;23.55;15.48;;;4.00;99.90;;;;;;4997225;28;20333;-68
2022/03/10 03:06:34;;;;;;;23.58;15.18;;;4.00;99.90;;;;;;5014278;28;20243;-67
2022/03/10 03:08:59;;;;;;;20.98;15.05;;;3.90;99.90;;;;;;5014853;28;20045;-67
2022/03/10 03:11:25;;;;;;;24.55;16.23;;;4.00;99.90;;;;;;4997960;28;20045;-68
2022/03/10 03:13:51;;;;;;;24.50;15.70;;;3.90;99.90;;;;;;5000514;28;20053;-68
2022/03/10 03:16:17;;;;;;;23.33;15.73;;;3.90;99.90;;;;;;5017563;28;20452;-67
2022/03/10 03:18:43;;;;;;;24.48;16.00;;;3.90;99.90;;;;;;5000725;28;20037;-67
2022/03/10 03:21:09;;;;;;;22.85;15.27;;;3.90;99.90;;;;;;5017742;28;20348;-67
2022/03/10 03:23:34;;;;;;;22.20;15.68;;;3.90;99.90;;;;;;5017619;28;20056;-68
2022/03/10 03:26:00;;;;;;;27.02;16.80;;;3.90;99.90;;;;;;5009518;28;20046;-66
2022/03/10 03:28:25;;;;;;;24.50;16.25;;;3.80;99.90;;;;;;5017365;28;20033;-66
2022/03/10 03:30:51;;;;;;;23.23;16.83;;;3.90;99.90;;;;;;5000308;28;20128;-67
2022/03/10 03:33:17;;;;;;;26.08;16.38;;;3.90;99.90;;;;;;5017520;28;20085;-68
2022/03/10 03:35:43;;;;;;;23.70;15.60;;;3.90;99.90;;;;;;5017429;28;20046;-68
2022/03/10 03:38:09;;;;;;;25.75;17.40;;;3.90;99.90;;;;;;5017486;28;20045;-67
2022/03/10 03:40:35;;;;;;;26.88;16.75;;;3.80;99.90;;;;;;4999803;28;20116;-67
2022/03/10 03:43:01;;;;;;;34.17;16.77;;;3.80;99.90;;;;;;5017191;28;20089;-67
2022/03/10 03:45:27;;;;;;;23.15;15.73;;;3.80;99.90;;;;;;5016934;28;20078;-67
2022/03/10 03:47:54;;;;;;;24.60;16.73;;;3.80;99.90;;;;;;5017402;28;20118;-68
2022/03/10 03:50:19;;;;;;;25.98;16.63;;;3.70;99.90;;;;;;5017175;28;20088;-67
2022/03/10 03:52:45;;;;;;;25.83;15.60;;;3.70;99.90;;;;;;5017196;28;20416;-67
2022/03/10 03:55:12;;;;;;;30.67;17.63;;;3.70;99.90;;;;;;5017221;28;20099;-68
2022/03/10 03:57:37;;;;;;;29.08;17.77;;;3.70;99.90;;;;;;5016777;28;20060;-68
2022/03/10 04:00:05;;;;;;;23.27;15.27;;;3.70;99.90;;;;;;5016926;28;20050;-67
2022/03/10 04:02:31;;;;;;;27.65;17.88;;;3.60;99.90;;;;;;4999418;28;20049;-67
2022/03/10 04:04:57;;;;;;;26.23;16.52;;;3.70;99.90;;;;;;5016918;28;20460;-67
2022/03/10 04:07:22;;;;;;;26.13;16.38;;;3.60;99.90;;;;;;5009201;28;20113;-67
2022/03/10 04:09:48;;;;;;;27.17;17.02;;;3.60;99.90;;;;;;4997114;28;20089;-68
2022/03/10 04:12:14;;;;;;;23.55;16.17;;;3.60;99.90;;;;;;4996982;28;20042;-67
2022/03/10 04:14:40;;;;;;;23.38;15.68;;;3.60;99.90;;;;;;4997087;28;20050;-68
2022/03/10 04:17:06;;;;;;;23.77;15.77;;;3.60;99.90;;;;;;4996788;28;20393;-67
2022/03/10 04:19:31;;;;;;;26.45;15.23;;;3.60;99.90;;;;;;4979833;28;20057;-67
2022/03/10 04:21:57;;;;;;;25.25;15.40;;;3.50;99.90;;;;;;4985059;28;20440;-68
2022/03/10 04:24:23;;;;;;;27.25;16.08;;;3.60;99.90;;;;;;5016817;28;20096;-67
2022/03/10 04:26:48;;;;;;;24.63;16.55;;;3.60;99.90;;;;;;5016386;28;20457;-66
2022/03/10 04:29:14;;;;;;;25.67;16.80;;;3.60;99.90;;;;;;5016686;28;20084;-67
2022/03/10 04:31:41;;;;;;;25.20;16.20;;;3.50;99.90;;;;;;5015759;28;20061;-67
2022/03/10 04:34:07;;;;;;;24.05;16.73;;;3.50;99.90;;;;;;4999234;28;20092;-68
2022/03/10 04:36:32;;;;;;;23.35;16.60;;;3.50;99.90;;;;;;4999153;28;20034;-66
2022/03/10 04:38:58;;;;;;;26.10;16.88;;;3.50;99.90;;;;;;5016105;28;20118;-67
2022/03/10 04:41:23;;;;;;;25.42;16.83;;;3.50;99.90;;;;;;4995130;28;20073;-68
2022/03/10 04:43:49;;;;;;;27.85;17.25;;;3.50;99.90;;;;;;4996895;28;20535;-68
2022/03/10 04:46:14;;;;;;;23.48;16.50;;;3.50;99.90;;;;;;4996412;28;20125;-67
2022/03/10 04:48:40;;;;;;;30.85;16.65;;;3.50;99.90;;;;;;4996438;28;20030;-68
2022/03/10 04:51:06;;;;;;;25.20;16.75;;;3.50;99.90;;;;;;4996510;28;20069;-68
2022/03/10 04:53:31;;;;;;;23.55;16.70;;;3.40;99.90;;;;;;4979532;28;20074;-67
2022/03/10 04:55:57;;;;;;;26.55;16.92;;;3.40;99.90;;;;;;4979087;28;20060;-68
2022/03/10 04:58:23;;;;;;;25.95;16.30;;;3.40;99.90;;;;;;5007166;28;20058;-67
2022/03/10 05:00:49;;;;;;;29.13;16.95;;;3.40;99.90;;;;;;4982917;28;20129;-67
2022/03/10 05:03:15;;;;;;;23.15;16.60;;;3.30;99.90;;;;;;5015828;28;20140;-67
2022/03/10 05:05:41;;;;;;;27.10;18.17;;;3.30;99.90;;;;;;5015628;28;20046;-67
2022/03/10 05:08:06;;;;;;;27.23;18.08;;;3.30;99.90;;;;;;5015428;28;20048;-68
2022/03/10 05:10:32;;;;;;;25.83;17.20;;;3.30;99.90;;;;;;5015513;28;20038;-68
2022/03/10 05:13:01;;;;;;;25.52;16.80;;;3.30;99.90;;;;;;5015427;28;20108;-66
2022/03/10 05:15:30;;;;;;;27.25;17.08;;;3.20;99.90;;;;;;4998268;28;20042;-66
2022/03/10 05:17:56;;;;;;;26.27;18.45;;;3.20;99.90;;;;;;5015737;28;20099;-67
2022/03/10 05:20:23;;;;;;;27.02;16.17;;;3.20;99.90;;;;;;4998245;28;20460;-68
2022/03/10 05:22:51;;;;;;;29.13;17.90;;;3.20;99.90;;;;;;5015650;28;20045;-68
2022/03/10 05:25:18;;;;;;;23.83;16.90;;;3.20;99.90;;;;;;5014908;28;20046;-67
2022/03/10 05:27:45;;;;;;;26.65;16.33;;;3.20;99.90;;;;;;4997775;28;20448;-67
2022/03/10 05:30:13;;;;;;;26.27;16.80;;;3.20;99.90;;;;;;4998430;28;20144;-68
2022/03/10 05:32:38;;;;;;;24.15;17.40;;;3.20;99.90;;;;;;5015310;28;20057;-67
2022/03/10 05:35:06;;;;;;;28.60;18.02;;;3.20;99.90;;;;;;5015307;28;20053;-68
2022/03/10 05:37:34;;;;;;;26.15;17.75;;;3.20;99.90;;;;;;5015249;28;20041;-67
2022/03/10 05:40:00;;;;;;;28.70;18.48;;;3.20;99.90;;;;;;5014525;28;20045;-67
2022/03/10 05:42:25;;;;;;;26.30;18.20;;;3.20;99.90;;;;;;4997940;28;20045;-67
2022/03/10 05:44:51;;;;;;;23.75;16.88;;;3.20;99.90;;;;;;5015315;28;20038;-66
2022/03/10 05:47:17;;;;;;;26.80;17.48;;;3.10;99.90;;;;;;4998127;28;20064;-66
2022/03/10 05:49:42;;;;;;;28.27;17.25;;;3.10;99.90;;;;;;5014963;28;20045;-67
2022/03/10 05:52:08;;;;;;;27.15;18.50;;;3.10;99.90;;;;;;4998312;28;20426;-67
2022/03/10 05:54:33;;;;;;;27.33;17.60;;;3.10;99.90;;;;;;4997033;28;20533;-68
2022/03/10 05:56:59;;;;;;;23.08;16.48;;;3.10;99.90;;;;;;4997414;28;20129;-68
2022/03/10 05:59:24;;;;;;;26.10;17.65;;;3.10;99.90;;;;;;5015016;28;20140;-67
2022/03/10 06:01:51;;;;;;;34.58;17.98;;;3.00;99.90;;;;;;4997436;28;20049;-68
2022/03/10 06:04:16;;;;;;;26.95;18.33;;;3.00;99.90;;;;;;5015003;28;20048;-68
2022/03/10 06:06:44;;;;;;;31.23;19.15;;;3.00;99.90;;;;;;5015198;28;20121;-67
2022/03/10 06:09:10;;;;;;;25.67;17.33;;;3.00;99.90;;;;;;5014274;28;20413;-67
2022/03/10 06:11:37;;;;;;;27.08;17.63;;;3.00;99.90;;;;;;4997857;28;20433;-67
2022/03/10 06:14:02;;;;;;;29.38;18.63;;;3.00;99.90;;;;;;5014832;28;20050;-68
2022/03/10 06:16:28;;;;;;;25.88;18.33;;;3.00;99.90;;;;;;5014812;28;20377;-67
2022/03/10 06:18:53;;;;;;;27.58;19.02;;;3.00;99.90;;;;;;5014696;28;20045;-68
2022/03/10 06:21:21;;;;;;;27.27;18.10;;;3.00;99.90;;;;;;4997267;28;20046;-68
2022/03/10 06:23:47;;;;;;;29.40;18.83;;;3.00;99.90;;;;;;5014625;28;20116;-68
2022/03/10 06:26:13;;;;;;;28.60;17.95;;;3.00;99.90;;;;;;4997442;28;20042;-67
2022/03/10 06:28:38;;;;;;;27.45;18.35;;;3.00;99.90;;;;;;5014989;28;20108;-67
2022/03/10 06:31:04;;;;;;;26.05;16.90;;;2.90;99.90;;;;;;5014367;28;20085;-67
2022/03/10 06:33:30;;;;;;;26.27;18.08;;;2.90;99.90;;;;;;5015197;28;20522;-67
2022/03/10 06:35:56;;;;;;;32.38;18.83;;;2.90;99.90;;;;;;5013892;28;20038;-68
2022/03/10 06:38:22;;;;;;;32.50;19.75;;;3.00;99.90;;;;;;5014321;28;20053;-67
2022/03/10 06:40:48;;;;;;;26.20;18.02;;;3.00;99.90;;;;;;5014772;28;20057;-67
2022/03/10 06:43:14;;;;;;;31.30;18.30;;;2.90;99.90;;;;;;4996970;28;20049;-67
2022/03/10 06:45:39;;;;;;;28.60;18.85;;;3.00;99.90;;;;;;5017888;28;20052;-67
2022/03/10 06:48:05;;;;;;;27.08;18.67;;;3.00;99.90;;;;;;5017957;28;20059;-67
2022/03/10 06:50:31;;;;;;;26.75;18.52;;;3.00;99.90;;;;;;5018344;28;20048;-66
2022/03/10 06:52:56;;;;;;;30.40;19.45;;;3.00;99.90;;;;;;5017970;28;20049;-68
2022/03/10 06:55:25;;;;;;;27.60;18.30;;;3.00;99.90;;;;;;5018335;28;20053;-68
2022/03/10 06:57:52;;;;;;;28.58;18.45;;;3.00;99.90;;;;;;5011169;28;20051;-68
2022/03/10 07:00:18;;;;;;;42.10;20.65;;;3.10;99.90;;;;;;4997226;28;20073;-68
2022/03/10 07:02:45;;;;;;;27.83;18.55;;;3.10;99.90;;;;;;4997438;28;20050;-67
2022/03/10 07:05:10;;;;;;;25.98;18.40;;;3.10;99.90;;;;;;4997697;28;20051;-68
2022/03/10 07:07:36;;;;;;;29.77;18.58;;;3.10;99.90;;;;;;4998158;28;20038;-66
2022/03/10 07:10:02;;;;;;;36.50;19.33;;;3.20;99.90;;;;;;4997844;28;20073;-68
2022/03/10 07:12:28;;;;;;;32.65;18.95;;;3.20;99.90;;;;;;4998083;28;20505;-67
2022/03/10 07:14:53;;;;;;;31.33;18.63;;;3.30;99.90;;;;;;4998349;28;20113;-68
2022/03/10 07:17:19;;;;;;;28.33;18.00;;;3.30;99.90;;;;;;4997376;28;20345;-67
2022/03/10 07:19:45;;;;;;;31.27;19.35;;;3.40;99.90;;;;;;4998019;28;20357;-71
2022/03/10 07:22:16;;;;;;;29.25;19.92;;;3.50;99.90;;;;;;4997553;28;20101;-67
2022/03/10 07:24:41;;;;;;;30.20;19.27;;;3.50;99.90;;;;;;4997531;28;20046;-69
2022/03/10 07:27:07;;;;;;;29.65;19.13;;;3.60;99.90;;;;;;4998017;28;20034;-68
2022/03/10 07:29:33;;;;;;;27.13;18.50;;;3.70;99.90;;;;;;4996961;28;20342;-69
2022/03/10 07:31:58;;;;;;;30.38;19.33;;;3.80;99.90;;;;;;4997930;28;20084;-67
2022/03/10 07:34:24;;;;;;;31.90;18.73;;;3.80;99.90;;;;;;4997532;28;20054;-68
2022/03/10 07:36:50;;;;;;;30.95;18.20;;;3.80;99.90;;;;;;4998187;28;20034;-68
2022/03/10 07:39:16;;;;;;;25.50;17.77;;;3.90;99.90;;;;;;5004538;28;20437;-67
2022/03/10 07:41:41;;;;;;;30.23;18.65;;;4.00;99.90;;;;;;5016836;28;20049;-68
2022/03/10 07:44:07;;;;;;;28.77;18.33;;;4.10;99.90;;;;;;4998003;28;20045;-67
2022/03/10 07:46:33;;;;;;;31.80;18.92;;;4.10;99.90;;;;;;4996580;28;20486;-70
2022/03/10 07:48:58;;;;;;;29.25;18.55;;;4.20;99.90;;;;;;4997629;28;20050;-69
2022/03/10 07:51:24;;;;;;;30.05;18.58;;;4.20;99.90;;;;;;4996364;28;20039;-69
2022/03/10 07:53:50;;;;;;;27.50;18.63;;;4.30;99.90;;;;;;4996340;28;20038;-70
2022/03/10 07:56:16;;;;;;;28.33;18.27;;;4.30;99.90;;;;;;4979473;28;20055;-70
2022/03/10 07:58:41;;;;;;;25.83;18.25;;;4.30;99.90;;;;;;5003432;28;20341;-68
2022/03/10 08:01:07;;;;;;;30.30;18.33;;;4.40;99.90;;;;;;5016803;28;20081;-68
2022/03/10 08:03:32;;;;;;;29.42;18.95;;;4.50;99.90;;;;;;5015023;28;20034;-69
2022/03/10 08:05:58;;;;;;;32.63;19.17;;;4.50;99.90;;;;;;5015338;28;20046;-70
2022/03/10 08:08:24;;;;;;;30.70;19.10;;;4.50;99.90;;;;;;5017212;28;20121;-68
2022/03/10 08:10:49;;;;;;;26.58;19.23;;;4.60;99.90;;;;;;5015884;28;20198;-67
2022/03/10 08:13:15;;;;;;;28.60;18.33;;;4.70;99.90;;;;;;5016494;28;20049;-66
2022/03/10 08:15:42;;;;;;;29.08;19.15;;;4.70;99.90;;;;;;5016054;28;20538;-68
2022/03/10 08:18:08;;;;;;;41.97;19.90;;;4.80;99.90;;;;;;5016395;28;20042;-68
2022/03/10 08:20:33;;;;;;;29.55;19.15;;;4.80;99.90;;;;;;4999070;28;20095;-67
2022/03/10 08:22:59;;;;;;;32.45;19.20;;;4.80;99.90;;;;;;5016618;28;20049;-67
2022/03/10 08:25:25;;;;;;;32.92;18.63;;;4.90;99.90;;;;;;5016249;28;20050;-69
2022/03/10 08:27:50;;;;;;;32.97;19.77;;;5.00;99.90;;;;;;4999190;28;20049;-69
2022/03/10 08:30:16;;;;;;;29.85;20.02;;;5.00;99.90;;;;;;5014995;28;20045;-68
2022/03/10 08:32:46;;;;;;;30.20;20.42;;;5.00;99.90;;;;;;5016231;28;20045;-67
2022/03/10 08:35:12;;;;;;;26.95;19.08;;;5.10;99.90;;;;;;5015862;28;20038;-69
2022/03/10 08:37:39;;;;;;;30.95;19.38;;;5.20;99.90;;;;;;5015985;28;20356;-68
2022/03/10 08:40:06;;;;;;;31.50;19.70;;;5.20;99.90;;;;;;5015872;28;20124;-69
2022/03/10 08:42:31;;;;;;;28.63;18.80;;;5.20;99.90;;;;;;4998526;28;20478;-69
2022/03/10 08:44:57;;;;;;;28.48;19.60;;;5.30;99.90;;;;;;5016178;28;20077;-68
2022/03/10 08:47:23;;;;;;;28.98;19.05;;;5.30;99.90;;;;;;4998862;28;20046;-70
2022/03/10 08:49:49;;;;;;;32.35;19.15;;;5.30;99.90;;;;;;5015569;28;20121;-68
2022/03/10 08:52:14;;;;;;;28.33;19.35;;;5.40;99.90;;;;;;5015107;28;20460;-68
2022/03/10 08:54:40;;;;;;;28.60;19.50;;;5.50;99.90;;;;;;5012907;28;20048;-71
2022/03/10 08:57:05;;;;;;;31.15;20.48;;;5.60;99.90;;;;;;5015743;28;20053;-70
2022/03/10 08:59:31;;;;;;;28.50;19.63;;;5.60;99.90;;;;;;5015913;28;20048;-69
2022/03/10 09:01:57;;;;;;;30.60;20.20;;;5.70;99.90;;;;;;4982250;28;20107;-69
2022/03/10 09:04:23;;;;;;;29.73;19.15;;;5.70;99.90;;;;;;5015659;28;20046;-70
2022/03/10 09:06:48;;;;;;;35.17;20.33;;;5.90;99.90;;;;;;4997515;28;20042;-69
2022/03/10 09:09:14;;;;;;;30.05;18.95;;;5.90;99.90;;;;;;5015556;28;20045;-69
2022/03/10 09:11:42;;;;;;;32.20;19.63;;;6.00;99.90;;;;;;5015996;28;20050;-69
2022/03/10 09:14:07;;;;;;;30.02;20.73;;;6.00;99.90;;;;;;4997348;28;20063;-70
2022/03/10 09:16:33;;;;;;;32.15;19.30;;;6.20;99.90;;;;;;5014402;28;20042;-70
2022/03/10 09:19:00;;;;;;;28.58;20.08;;;6.20;99.90;;;;;;5014923;28;20030;-69
2022/03/10 09:21:26;;;;;;;31.10;20.27;;;6.30;99.90;;;;;;4997554;28;20075;-70
2022/03/10 09:23:53;;;;;;;29.98;20.10;;;6.40;99.90;;;;;;5015324;28;20046;-69
2022/03/10 09:26:18;;;;;;;31.63;20.48;;;6.40;99.90;;;;;;5014926;28;20123;-69
2022/03/10 09:28:44;;;;;;;36.05;21.23;;;6.50;99.90;;;;;;4997749;28;20452;-69
2022/03/10 09:31:12;;;;;;;32.83;19.88;;;6.60;99.90;;;;;;5012639;28;20041;-70
2022/03/10 09:33:41;;;;;;;30.60;20.42;;;6.70;99.90;;;;;;4997198;28;20042;-69
2022/03/10 09:36:07;;;;;;;28.27;19.92;;;6.80;99.90;;;;;;4997595;28;20128;-70
2022/03/10 09:38:32;;;;;;;35.35;21.90;;;6.80;99.90;;;;;;5015139;28;20126;-68
2022/03/10 09:40:58;;;;;;;33.90;21.23;;;6.90;99.90;;;;;;4998198;28;19928;-68
2022/03/10 09:43:28;;;;;;;36.33;21.88;;;7.00;99.90;;;;;;5015309;28;20068;-69
2022/03/10 09:45:54;;;;;;;32.30;21.17;;;7.10;99.90;;;;;;5015026;28;20065;-69
2022/03/10 09:48:21;;;;;;;29.77;20.38;;;7.20;99.90;;;;;;5014551;28;20456;-69
2022/03/10 09:50:48;;;;;;;39.88;23.10;;;7.20;99.90;;;;;;5014974;28;20077;-69
2022/03/10 09:53:15;;;;;;;36.10;21.20;;;7.40;99.90;;;;;;4998058;28;20038;-68
2022/03/10 09:55:41;;;;;;;31.55;20.67;;;7.50;99.90;;;;;;5014862;28;20034;-68
2022/03/10 09:58:07;;;;;;;29.58;19.40;;;7.50;99.90;;;;;;4997668;28;20050;-70
2022/03/10 10:00:33;;;;;;;30.00;20.08;;;7.60;99.90;;;;;;4995594;28;20057;-69
2022/03/10 10:02:59;;;;;;;36.30;20.98;;;7.70;99.90;;;;;;5014528;28;20041;-68
2022/03/10 10:05:26;;;;;;;34.67;21.13;;;7.80;99.90;;;;;;5015315;28;20092;-68
2022/03/10 10:08:10;;;;;;;32.88;22.20;;;7.90;99.90;;;;;;5014789;28;20037;-68
2022/03/10 10:10:39;;;;;;;34.53;21.85;;;8.10;99.90;;;;;;5015056;28;20042;-68
2022/03/10 10:13:06;;;;;;;33.75;20.58;;;8.20;99.90;;;;;;5013652;28;20152;-69
2022/03/10 10:15:40;;;;;;;32.28;19.83;;;8.40;99.90;;;;;;5014804;28;20120;-68
2022/03/10 10:18:12;;;;;;;32.88;21.67;;;8.50;99.90;;;;;;5015713;28;20096;-70
2022/03/10 10:20:46;;;;;;;36.72;23.42;;;8.60;99.90;;;;;;5019031;28;20061;-70
2022/03/10 10:23:17;;;;;;;44.45;23.48;;;8.80;99.90;;;;;;5017513;28;20041;-70
2022/03/10 10:26:15;;;;;;;34.28;22.17;;;8.90;99.90;;;;;;5017946;28;20048;-70
2022/03/10 10:28:43;;;;;;;43.92;27.27;;;9.10;99.90;;;;;;5014312;28;20046;-68
2022/03/10 10:31:12;;;;;;;34.97;22.63;;;9.20;99.90;;;;;;5015849;28;20409;-69
2022/03/10 10:33:41;;;;;;;34.65;22.98;;;9.40;99.90;;;;;;5014969;28;20464;-68
2022/03/10 10:36:17;;;;;;;33.63;21.35;;;9.50;99.90;;;;;;5017949;28;20507;-70
2022/03/10 10:38:45;;;;;;;33.80;21.52;;;9.70;99.30;;;;;;5005228;28;20045;-69
2022/03/10 10:41:22;;;;;;;36.40;22.98;;;9.80;99.30;;;;;;5017249;28;20467;-69
2022/03/10 10:43:52;;;;;;;37.05;22.38;;;10.00;98.20;;;;;;5017440;28;20125;-69
2022/03/10 10:46:49;;;;;;;33.83;22.77;;;10.10;98.20;;;;;;5017767;28;20041;-70
2022/03/10 10:49:20;;;;;;;35.90;23.45;;;10.30;97.40;;;;;;4988721;28;20608;-70
2022/03/10 10:51:49;;;;;;;40.53;22.27;;;10.40;97.70;;;;;;5018184;28;20068;-69
2022/03/10 10:54:23;;;;;;;35.22;22.83;;;10.50;97.80;;;;;;5016849;28;20064;-68
2022/03/10 10:56:49;;;;;;;33.90;22.65;;;10.70;97.20;;;;;;4998370;28;20095;-70
2022/03/10 10:59:38;;;;;;;34.15;23.38;;;10.80;96.50;;;;;;5003264;28;20109;-69
2022/03/10 11:02:34;;;;;;;36.60;24.08;;;10.80;96.00;;;;;;4997328;28;20046;-69
2022/03/10 11:05:00;;;;;;;31.70;22.50;;;10.80;96.20;;;;;;4977546;28;20050;-69
2022/03/10 11:07:26;;;;;;;44.08;25.92;;;11.00;95.70;;;;;;4990581;28;20057;-69
2022/03/10 11:09:54;;;;;;;41.13;27.80;;;11.10;95.40;;;;;;4998049;28;20528;-69
2022/03/10 11:12:20;;;;;;;31.80;22.92;;;11.10;95.30;;;;;;4981057;28;20057;-68
2022/03/10 11:14:47;;;;;;;37.28;23.67;;;11.20;94.60;;;;;;4997975;28;20038;-70
2022/03/10 11:17:15;;;;;;;49.13;29.98;;;11.20;95.00;;;;;;4997850;28;20074;-69
2022/03/10 11:19:46;;;;;;;40.45;24.13;;;11.20;94.90;;;;;;4980913;28;20072;-70
2022/03/10 11:22:23;;;;;;;36.70;24.10;;;11.20;94.80;;;;;;4980844;28;20057;-68
2022/03/10 11:25:03;;;;;;;37.10;24.52;;;11.20;94.70;;;;;;5001414;28;20117;-70
2022/03/10 11:27:39;;;;;;;33.65;23.23;;;11.40;94.50;;;;;;5017560;28;20498;-69
2022/03/10 11:30:06;;;;;;;33.55;22.70;;;11.40;94.50;;;;;;5015368;28;20062;-69
2022/03/10 11:32:32;;;;;;;38.15;23.35;;;11.50;93.50;;;;;;4980821;28;20038;-70
2022/03/10 11:35:00;;;;;;;33.53;22.80;;;11.70;93.10;;;;;;4998484;28;20129;-69
2022/03/10 11:37:50;;;;;;;39.50;23.33;;;11.90;92.50;;;;;;4997272;28;20361;-69
2022/03/10 11:40:18;;;;;;;34.78;21.70;;;11.90;91.30;;;;;;4997401;28;20054;-68
2022/03/10 11:42:44;;;;;;;35.53;24.08;;;12.10;91.90;;;;;;4981001;28;20057;-69
2022/03/10 11:45:19;;;;;;;35.45;23.23;;;12.00;91.60;;;;;;4997198;28;20042;-68
2022/03/10 11:47:46;;;;;;;33.83;22.58;;;12.10;90.90;;;;;;4997229;28;20177;-69
2022/03/10 11:50:20;;;;;;;34.72;22.77;;;12.20;91.10;;;;;;4980389;28;20046;-69
2022/03/10 11:52:50;;;;;;;;;;;12.20;90.90;;;;;;4980562;28;20443;-68
2022/03/10 11:55:20;;;;;;;33.30;22.45;;;12.20;90.20;;;;;;4997566;28;19925;-69
2022/03/10 11:57:55;;;;;;;35.05;23.70;;;12.20;91.00;;;;;;4979410;28;20586;-69
2022/03/10 12:00:44;;;;;;;;;;;12.30;90.60;;;;;;4997581;28;20093;-70
2022/03/10 12:03:29;;;;;;;35.20;23.52;;;12.30;90.50;;;;;;4997395;28;19968;-69
2022/03/10 12:06:06;;;;;;;32.10;23.27;;;12.40;91.10;;;;;;4979778;28;20129;-69
2022/03/10 12:08:35;;;;;;;35.15;23.30;;;12.50;91.10;;;;;;4996793;28;20038;-70
2022/03/10 12:11:05;;;;;;;35.25;22.95;;;12.70;90.00;;;;;;4980349;28;20108;-68
2022/03/10 12:13:37;;;;;;;35.78;23.13;;;12.80;90.60;;;;;;4997113;28;20081;-69
2022/03/10 12:16:04;;;;;;;36.92;22.60;;;12.80;88.50;;;;;;4996940;28;20069;-68
2022/03/10 12:18:38;;;;;;;34.33;23.35;;;12.90;89.20;;;;;;4992590;28;20117;-69
2022/03/10 12:21:25;;;;;;;35.92;24.67;;;13.00;88.60;;;;;;4996734;28;20088;-70
2022/03/10 12:23:56;;;;;;;36.30;24.05;;;13.10;86.20;;;;;;4993584;28;20038;-68
2022/03/10 12:26:39;;;;;;;38.03;23.27;;;13.20;86.90;;;;;;4984839;28;20144;-69
2022/03/10 12:29:07;;;;;;;34.20;23.85;;;13.30;87.40;;;;;;4977457;28;20054;-68
2022/03/10 12:31:35;;;;;;;34.70;21.92;;;13.40;87.20;;;;;;4994803;28;20479;-69
2022/03/10 12:34:06;;;;;;;33.47;23.38;;;13.40;86.20;;;;;;4981821;28;20125;-70
2022/03/10 12:36:38;;;;;;;35.20;23.35;;;13.50;86.80;;;;;;4979090;28;20475;-69
2022/03/10 12:39:16;;;;;;;35.88;24.25;;;13.50;85.60;;;;;;4994594;28;20046;-70
2022/03/10 12:41:48;;;;;;;38.05;23.25;;;13.50;84.20;;;;;;4994342;28;20038;-70